createdAt,value
2018-11-28T00:00:32.968Z,68.43
2018-11-28T00:03:06.465Z,65.30
2018-11-28T00:05:35.626Z,70.33
2018-11-28T00:08:04.689Z,69.97
2018-11-28T00:10:33.742Z,68.23
2018-11-28T00:13:02.880Z,65.70
2018-11-28T00:15:31.973Z,65.20
2018-11-28T00:18:00.972Z,60.30
2018-11-28T00:20:30.008Z,57.57
2018-11-28T00:22:59.229Z,59.33
2018-11-28T00:25:28.218Z,65.57
2018-11-28T00:27:57.292Z,67.50
2018-11-28T00:30:26.717Z,63.70
2018-11-28T00:32:55.804Z,66.43
2018-11-28T00:35:25.408Z,68.50
2018-11-28T00:37:54.404Z,71.70
2018-11-28T00:40:23.990Z,67.10
2018-11-28T00:42:53.049Z,62.97
2018-11-28T00:45:24.254Z,66.50
2018-11-28T00:47:53.340Z,64.83
2018-11-28T00:50:25.691Z,69.73
2018-11-28T00:52:54.721Z,71.37
2018-11-28T00:55:23.813Z,62.67
2018-11-28T00:57:52.887Z,59.03
2018-11-28T01:00:23.447Z,62.17
2018-11-28T01:02:52.727Z,63.90
2018-11-28T01:05:21.883Z,62.97
2018-11-28T01:07:51.849Z,57.50
2018-11-28T01:10:21.831Z,58.87
2018-11-28T01:12:51.767Z,60.40
2018-11-28T01:15:21.289Z,59.67
2018-11-28T01:17:50.339Z,58.80
2018-11-28T01:20:21.107Z,61.67
2018-11-28T01:22:50.123Z,62.40
2018-11-28T01:25:20.223Z,61.30
2018-11-28T01:27:49.811Z,63.83
2018-11-28T01:30:22.939Z,57.40
2018-11-28T01:32:52.147Z,60.30
2018-11-28T01:35:21.839Z,64.10
2018-11-28T01:37:50.823Z,59.27
2018-11-28T01:40:21.039Z,57.10
2018-11-28T01:42:50.203Z,65.63
2018-11-28T01:45:21.468Z,69.23
2018-11-28T01:47:50.591Z,69.30
2018-11-28T01:50:20.578Z,58.53
2018-11-28T01:52:49.929Z,63.73
2018-11-28T01:55:21.333Z,65.73
2018-11-28T01:57:50.502Z,60.27
2018-11-28T02:00:22.610Z,63.47
2018-11-28T02:02:53.025Z,63.70
2018-11-28T02:05:22.139Z,57.63
2018-11-28T02:07:51.151Z,62.37
2018-11-28T02:10:20.221Z,59.53
2018-11-28T02:12:49.326Z,60.93
2018-11-28T02:15:20.369Z,60.23
2018-11-28T02:17:49.465Z,54.07
2018-11-28T02:21:43.010Z,55.70
2018-11-28T02:24:12.113Z,61.97
2018-11-28T02:26:41.229Z,59.60
2018-11-28T02:29:10.405Z,54.07
2018-11-28T02:31:40.408Z,50.40
2018-11-28T02:34:09.596Z,53.23
2018-11-28T02:36:38.718Z,52.37
2018-11-28T02:39:09.744Z,54.43
2018-11-28T02:41:38.871Z,58.43
2018-11-28T02:44:07.945Z,56.27
2018-11-28T02:46:36.962Z,48.20
2018-11-28T02:49:06.019Z,52.37
2018-11-28T02:51:35.002Z,49.20
2018-11-28T02:54:04.541Z,50.43
2018-11-28T02:56:33.653Z,50.03
2018-11-28T02:59:02.718Z,55.50
2018-11-28T03:01:31.801Z,52.47
2018-11-28T03:04:00.825Z,51.73
2018-11-28T03:06:29.944Z,51.33
2018-11-28T03:08:59.103Z,49.23
2018-11-28T03:11:28.087Z,52.57
2018-11-28T03:13:57.240Z,45.90
2018-11-28T03:16:26.318Z,46.00
2018-11-28T03:18:55.369Z,50.07
2018-11-28T03:21:24.469Z,43.20
2018-11-28T03:23:53.780Z,42.23
2018-11-28T03:26:22.888Z,37.57
2018-11-28T03:28:51.992Z,42.33
2018-11-28T03:31:21.129Z,44.67
2018-11-28T03:33:50.161Z,43.77
2018-11-28T03:36:19.322Z,43.17
2018-11-28T03:38:48.300Z,39.03
2018-11-28T03:41:17.296Z,41.57
2018-11-28T03:43:46.373Z,38.00
2018-11-28T03:46:15.424Z,45.90
2018-11-28T03:48:44.549Z,46.13
2018-11-28T03:51:14.644Z,42.27
2018-11-28T03:53:43.708Z,43.80
2018-11-28T03:56:12.760Z,38.37
2018-11-28T03:58:41.923Z,47.80
2018-11-28T04:01:10.986Z,42.93
2018-11-28T04:03:40.044Z,48.17
2018-11-28T04:06:09.200Z,46.10
2018-11-28T04:08:38.178Z,52.63
2018-11-28T04:11:07.280Z,46.70
2018-11-28T04:13:36.376Z,47.37
2018-11-28T04:16:06.298Z,48.53
2018-11-28T04:18:35.444Z,46.07
2018-11-28T04:21:04.500Z,46.50
2018-11-28T04:23:33.591Z,48.87
2018-11-28T04:26:02.664Z,43.93
2018-11-28T04:28:31.777Z,43.87
2018-11-28T04:31:00.849Z,42.50
2018-11-28T04:33:29.844Z,45.47
2018-11-28T04:35:58.910Z,46.57
2018-11-28T04:38:29.364Z,48.83
2018-11-28T04:40:56.976Z,45.43
2018-11-28T04:43:26.088Z,50.00
2018-11-28T04:45:55.128Z,45.87
2018-11-28T04:48:24.256Z,43.57
2018-11-28T04:50:53.346Z,44.57
2018-11-28T04:53:22.470Z,43.47
2018-11-28T04:55:51.648Z,42.60
2018-11-28T04:58:20.720Z,44.13
2018-11-28T05:00:49.802Z,44.23
2018-11-28T05:03:18.960Z,46.93
2018-11-28T05:05:48.010Z,41.10
2018-11-28T05:08:17.180Z,39.00
2018-11-28T05:10:46.189Z,42.30
2018-11-28T05:13:15.315Z,41.17
2018-11-28T05:15:44.403Z,43.03
2018-11-28T05:18:13.524Z,46.07
2018-11-28T05:20:42.521Z,41.47
2018-11-28T05:23:11.627Z,42.70
2018-11-28T05:25:40.681Z,44.30
2018-11-28T05:28:09.752Z,40.87
2018-11-28T05:30:38.900Z,39.60
2018-11-28T05:33:07.954Z,42.10
2018-11-28T05:35:38.263Z,44.60
2018-11-28T05:38:12.765Z,41.13
2018-11-28T05:40:43.050Z,39.57
2018-11-28T05:43:12.149Z,40.10
2018-11-28T05:45:41.268Z,43.73
2018-11-28T05:48:10.362Z,43.10
2018-11-28T05:50:39.599Z,44.73
2018-11-28T05:53:08.741Z,37.67
2018-11-28T05:55:38.041Z,38.97
2018-11-28T05:58:07.214Z,38.97
2018-11-28T06:00:40.104Z,38.87
2018-11-28T06:03:10.107Z,39.07
2018-11-28T06:05:39.988Z,36.43
2018-11-28T06:08:09.100Z,38.20
2018-11-28T06:10:38.298Z,35.37
2018-11-28T06:13:07.456Z,39.40
2018-11-28T06:15:36.576Z,37.37
2018-11-28T06:18:06.941Z,34.73
2018-11-28T06:20:36.007Z,34.83
2018-11-28T06:23:05.574Z,34.87
2018-11-28T06:25:34.623Z,48.40
2018-11-28T06:28:03.739Z,33.70
2018-11-28T06:30:32.786Z,34.97
2018-11-28T06:33:01.769Z,37.50
2018-11-28T06:35:30.783Z,32.63
2018-11-28T06:37:59.883Z,35.43
2018-11-28T06:40:28.919Z,38.27
2018-11-28T06:42:57.994Z,36.53
2018-11-28T06:45:27.107Z,38.77
2018-11-28T06:47:56.134Z,35.07
2018-11-28T06:50:25.339Z,37.03
2018-11-28T06:52:54.423Z,36.47
2018-11-28T06:55:23.432Z,34.70
2018-11-28T06:57:52.438Z,31.67
2018-11-28T07:00:22.570Z,30.83
2018-11-28T07:02:52.796Z,30.17
2018-11-28T07:05:22.464Z,31.27
2018-11-28T07:07:52.001Z,37.87
2018-11-28T07:10:21.913Z,31.40
2018-11-28T07:12:51.108Z,31.07
2018-11-28T07:15:22.555Z,31.17
2018-11-28T07:17:51.755Z,26.53
2018-11-28T07:20:20.991Z,29.83
2018-11-28T07:22:50.202Z,32.33
2018-11-28T07:25:19.595Z,28.73
2018-11-28T07:27:49.156Z,30.47
2018-11-28T07:30:21.007Z,28.70
2018-11-28T07:32:51.348Z,29.57
2018-11-28T07:35:20.431Z,28.43
2018-11-28T07:37:49.529Z,24.23
2018-11-28T07:40:20.739Z,25.53
2018-11-28T07:43:00.078Z,23.20
2018-11-28T07:45:29.206Z,22.30
2018-11-28T07:47:58.304Z,24.73
2018-11-28T07:50:27.331Z,26.43
2018-11-28T07:52:56.359Z,25.90
2018-11-28T07:55:25.373Z,29.23
2018-11-28T07:57:54.504Z,28.53
2018-11-28T08:00:23.663Z,28.53
2018-11-28T08:02:52.751Z,22.03
2018-11-28T08:05:21.926Z,24.17
2018-11-28T08:07:50.944Z,26.90
2018-11-28T08:10:23.136Z,23.07
2018-11-28T08:12:55.376Z,23.23
2018-11-28T08:15:24.489Z,22.50
2018-11-28T08:17:53.676Z,23.23
2018-11-28T08:20:22.832Z,23.37
2018-11-28T08:22:51.980Z,21.03
2018-11-28T08:25:21.064Z,20.93
2018-11-28T08:27:50.904Z,21.27
2018-11-28T08:30:21.977Z,21.00
2018-11-28T08:32:51.072Z,22.13
2018-11-28T08:35:21.054Z,23.63
2018-11-28T08:37:50.298Z,19.80
2018-11-28T08:40:24.337Z,20.10
2018-11-28T08:42:54.488Z,18.23
2018-11-28T08:45:23.564Z,20.00
2018-11-28T08:47:53.791Z,23.93
2018-11-28T08:50:26.076Z,19.80
2018-11-28T08:52:55.136Z,25.27
2018-11-28T08:55:24.185Z,33.07
2018-11-28T08:57:53.256Z,22.50
2018-11-28T09:00:23.460Z,20.10
2018-11-28T09:02:53.712Z,65.07
2018-11-28T09:05:22.739Z,137.53
2018-11-28T09:07:51.964Z,70.67
2018-11-28T09:10:21.402Z,53.37
2018-11-28T09:12:50.882Z,21.43
2018-11-28T09:15:22.036Z,23.23
2018-11-28T09:17:51.156Z,35.80
2018-11-28T09:20:20.343Z,18.73
2018-11-28T09:22:49.474Z,20.97
2018-11-28T09:25:19.128Z,21.30
2018-11-28T09:27:53.346Z,38.17
2018-11-28T09:30:22.544Z,19.63
2018-11-28T09:32:51.896Z,25.63
2018-11-28T09:35:21.067Z,45.70
2018-11-28T09:37:50.147Z,20.60
2018-11-28T09:40:22.220Z,23.30
2018-11-28T09:42:52.342Z,21.47
2018-11-28T09:45:21.641Z,20.10
2018-11-28T09:47:50.727Z,22.57
2018-11-28T09:50:23.810Z,19.23
2018-11-28T09:52:52.959Z,17.77
2018-11-28T09:55:23.240Z,16.57
2018-11-28T09:57:52.321Z,19.03
2018-11-28T10:00:24.348Z,15.80
2018-11-28T10:02:55.300Z,17.43
2018-11-28T10:05:25.656Z,16.13
2018-11-28T10:07:54.778Z,15.20
2018-11-28T10:10:23.791Z,17.97
2018-11-28T10:12:52.836Z,14.13
2018-11-28T10:15:23.678Z,16.37
2018-11-28T10:17:52.752Z,15.37
2018-11-28T10:20:21.916Z,12.77
2018-11-28T10:22:51.887Z,14.97
2018-11-28T10:25:23.819Z,13.97
2018-11-28T10:27:55.174Z,15.63
2018-11-28T10:30:29.103Z,18.17
2018-11-28T10:32:57.699Z,14.10
2018-11-28T10:35:26.822Z,36.07
2018-11-28T10:37:55.842Z,44.67
2018-11-28T10:40:25.334Z,19.07
2018-11-28T10:42:59.424Z,19.63
2018-11-28T10:45:30.252Z,15.40
2018-11-28T10:47:59.672Z,17.43
2018-11-28T10:54:32.628Z,28.07
2018-11-28T10:57:01.712Z,11.93
2018-11-28T10:59:30.914Z,15.67
2018-11-28T11:02:05.468Z,11.03
2018-11-28T11:04:40.364Z,10.33
2018-11-28T11:07:14.508Z,11.87
2018-11-28T11:09:49.021Z,11.20
2018-11-28T11:12:23.515Z,11.10
2018-11-28T11:14:52.592Z,13.10
2018-11-28T11:17:21.619Z,9.57
2018-11-28T11:19:50.654Z,8.53
2018-11-28T11:22:19.827Z,8.30
2018-11-28T11:24:48.804Z,8.00
2018-11-28T11:27:17.878Z,9.43
2018-11-28T11:29:46.888Z,7.73
2018-11-28T11:32:16.068Z,9.67
2018-11-28T11:34:45.172Z,9.70
2018-11-28T11:37:14.257Z,9.40
2018-11-28T11:39:43.304Z,8.03
2018-11-28T11:42:12.436Z,7.50
2018-11-28T11:44:41.428Z,7.63
2018-11-28T11:47:10.543Z,8.00
2018-11-28T11:49:39.676Z,7.00
2018-11-28T11:52:08.740Z,6.97
2018-11-28T11:54:37.939Z,7.47
2018-11-28T11:57:07.288Z,6.67
2018-11-28T11:59:36.339Z,8.73
2018-11-28T12:02:06.011Z,7.10
2018-11-28T12:04:35.050Z,8.63
2018-11-28T12:07:04.140Z,7.17
2018-11-28T12:09:33.431Z,7.77
2018-11-28T12:12:02.420Z,7.60
2018-11-28T12:14:31.537Z,7.00
2018-11-28T12:17:00.663Z,8.87
2018-11-28T12:19:30.020Z,9.47
2018-11-28T12:21:58.987Z,8.17
2018-11-28T12:24:29.102Z,8.83
2018-11-28T12:26:57.197Z,8.73
2018-11-28T12:29:26.310Z,9.50
2018-11-28T12:31:55.458Z,7.63
2018-11-28T12:34:24.509Z,9.23
2018-11-28T12:36:53.637Z,9.37
2018-11-28T12:41:51.833Z,11.90
2018-11-28T12:44:20.873Z,9.40
2018-11-28T12:46:49.939Z,10.47
2018-11-28T12:49:19.057Z,13.30
2018-11-28T12:51:48.185Z,9.43
2018-11-28T12:54:17.348Z,9.60
2018-11-28T12:56:46.478Z,13.27
2018-11-28T12:59:15.529Z,9.87
2018-11-28T13:01:44.650Z,9.13
2018-11-28T13:04:13.805Z,9.80
2018-11-28T13:06:42.864Z,8.63
2018-11-28T13:09:11.848Z,11.00
2018-11-28T13:11:40.902Z,9.60
2018-11-28T13:14:10.012Z,11.33
2018-11-28T13:16:39.089Z,11.30
2018-11-28T13:19:08.192Z,11.43
2018-11-28T13:21:37.314Z,11.00
2018-11-28T13:24:06.490Z,11.03
2018-11-28T13:26:35.554Z,9.67
2018-11-28T13:29:04.975Z,13.47
2018-11-28T13:31:34.116Z,9.10
2018-11-28T13:34:03.290Z,9.90
2018-11-28T13:36:32.348Z,11.20
2018-11-28T13:39:01.364Z,11.87
2018-11-28T13:41:30.444Z,9.47
2018-11-28T13:43:59.567Z,9.00
2018-11-28T13:46:28.604Z,8.60
2018-11-28T13:48:57.628Z,7.83
2018-11-28T13:51:26.689Z,10.00
2018-11-28T13:53:56.041Z,11.70
2018-11-28T13:56:58.500Z,8.63
2018-11-28T13:58:54.247Z,8.73
2018-11-28T14:01:23.344Z,10.33
2018-11-28T14:03:52.399Z,9.53
2018-11-28T14:06:21.416Z,7.13
2018-11-28T14:08:50.496Z,8.47
2018-11-28T14:11:19.600Z,8.73
2018-11-28T14:13:48.662Z,8.63
2018-11-28T14:16:17.676Z,8.23
2018-11-28T14:18:46.712Z,7.93
2018-11-28T14:21:15.783Z,8.73
2018-11-28T14:23:44.891Z,9.40
2018-11-28T14:26:14.007Z,7.10
2018-11-28T14:28:43.136Z,7.60
2018-11-28T14:31:12.247Z,10.00
2018-11-28T14:33:41.397Z,7.97
2018-11-28T14:36:10.552Z,7.37
2018-11-28T14:38:39.627Z,9.70
2018-11-28T14:41:08.669Z,9.80
2018-11-28T14:43:37.691Z,9.13
2018-11-28T14:46:06.803Z,9.20
2018-11-28T14:48:35.972Z,8.37
2018-11-28T14:51:05.147Z,10.53
2018-11-28T14:53:34.198Z,7.30
2018-11-28T14:56:03.214Z,9.17
2018-11-28T14:58:32.313Z,5.63
2018-11-28T15:01:02.309Z,6.73
2018-11-28T15:03:31.344Z,6.23
2018-11-28T15:06:03.347Z,4.43
2018-11-28T15:08:33.119Z,4.90
2018-11-28T15:11:08.767Z,5.40
2018-11-28T15:13:38.159Z,5.57
2018-11-28T15:16:07.505Z,4.43
2018-11-28T15:18:36.585Z,5.40
2018-11-28T15:21:06.709Z,4.07
2018-11-28T15:23:35.853Z,4.83
2018-11-28T15:26:05.159Z,4.43
2018-11-28T15:28:34.251Z,4.20
2018-11-28T15:31:03.383Z,3.80
2018-11-28T15:33:32.456Z,4.23
2018-11-28T15:36:01.572Z,4.60
2018-11-28T15:38:30.611Z,4.73
2018-11-28T15:40:59.641Z,3.83
2018-11-28T15:43:28.824Z,4.43
2018-11-28T15:45:58.067Z,5.43
2018-11-28T15:48:27.091Z,3.97
2018-11-28T15:50:56.097Z,3.77
2018-11-28T15:53:25.213Z,4.20
2018-11-28T15:55:54.369Z,3.70
2018-11-28T15:58:23.437Z,3.73
2018-11-28T16:00:52.557Z,3.70
2018-11-28T16:03:21.622Z,4.30
2018-11-28T16:05:50.885Z,3.77
2018-11-28T16:08:19.976Z,4.33
2018-11-28T16:10:49.049Z,4.80
2018-11-28T16:13:18.992Z,5.93
2018-11-28T16:15:52.225Z,4.37
2018-11-28T16:18:21.245Z,4.37
2018-11-28T16:20:50.460Z,4.57
2018-11-28T16:23:19.605Z,5.17
2018-11-28T16:25:48.700Z,4.27
2018-11-28T16:28:17.783Z,6.00
2018-11-28T16:30:46.844Z,4.83
2018-11-28T16:33:15.866Z,5.47
2018-11-28T16:35:44.966Z,3.87
2018-11-28T16:38:14.018Z,4.60
2018-11-28T16:40:43.012Z,4.17
2018-11-28T16:43:12.173Z,4.63
2018-11-28T16:45:41.928Z,6.40
2018-11-28T16:48:10.228Z,6.10
2018-11-28T16:50:39.400Z,5.33
2018-11-28T16:53:08.423Z,5.57
2018-11-28T16:55:37.487Z,6.50
2018-11-28T16:58:07.528Z,5.17
2018-11-28T17:00:38.584Z,6.20
2018-11-28T17:03:07.689Z,6.80
2018-11-28T17:05:36.793Z,6.40
2018-11-28T17:08:07.555Z,6.63
2018-11-28T17:10:36.595Z,7.03
2018-11-28T17:13:06.726Z,7.67
2018-11-28T17:15:35.839Z,9.67
2018-11-28T17:18:05.334Z,9.83
2018-11-28T17:20:34.322Z,8.87
2018-11-28T17:23:03.361Z,9.73
2018-11-28T17:25:32.802Z,10.13
2018-11-28T17:28:01.899Z,10.67
2018-11-28T17:30:31.149Z,9.33
2018-11-28T17:33:00.202Z,9.97
2018-11-28T17:35:29.310Z,9.37
2018-11-28T17:37:58.387Z,11.27
2018-11-28T17:40:28.381Z,12.07
2018-11-28T17:42:58.747Z,12.50
2018-11-28T17:45:28.508Z,11.63
2018-11-28T17:47:57.668Z,11.13
2018-11-28T17:50:27.252Z,12.87
2018-11-28T17:53:01.963Z,13.23
2018-11-28T17:55:33.704Z,12.43
2018-11-28T17:58:02.838Z,14.30
2018-11-28T18:00:31.896Z,15.03
2018-11-28T18:03:01.020Z,14.33
2018-11-28T18:05:30.280Z,12.70
2018-11-28T18:07:59.384Z,13.87
2018-11-28T18:10:29.121Z,15.77
2018-11-28T18:13:07.204Z,15.27
2018-11-28T18:15:36.208Z,12.97
2018-11-28T18:18:07.083Z,15.00
2018-11-28T18:20:36.204Z,13.97
2018-11-28T18:23:06.783Z,15.73
2018-11-28T18:25:35.864Z,15.87
2018-11-28T18:28:05.090Z,15.57
2018-11-28T18:30:34.072Z,15.33
2018-11-28T18:33:03.208Z,15.00
2018-11-28T18:35:32.258Z,19.03
2018-11-28T18:38:01.425Z,16.80
2018-11-28T18:40:30.651Z,17.70
2018-11-28T18:42:59.788Z,18.43
2018-11-28T18:45:30.068Z,19.53
2018-11-28T18:47:59.173Z,16.23
2018-11-28T18:50:28.171Z,17.77
2018-11-28T18:52:57.248Z,18.57
2018-11-28T18:55:26.272Z,15.47
2018-11-28T18:57:56.248Z,19.27
2018-11-28T19:00:26.363Z,16.40
2018-11-28T19:02:55.915Z,20.40
2018-11-28T19:05:25.085Z,21.97
2018-11-28T19:07:54.215Z,17.10
2018-11-28T19:10:26.501Z,17.13
2018-11-28T19:12:54.219Z,20.20
2018-11-28T19:15:24.265Z,19.07
2018-11-28T19:17:53.942Z,21.00
2018-11-28T19:20:23.564Z,19.40
2018-11-28T19:22:54.640Z,19.63
2018-11-28T19:25:24.566Z,17.73
2018-11-28T19:27:53.713Z,18.60
2018-11-28T19:30:33.236Z,17.63
2018-11-28T19:33:02.340Z,21.67
2018-11-28T19:35:31.585Z,17.37
2018-11-28T19:38:00.716Z,16.10
2018-11-28T19:40:40.229Z,18.17
2018-11-28T19:43:09.259Z,21.23
2018-11-28T19:45:38.247Z,15.60
2018-11-28T19:48:07.567Z,20.67
2018-11-28T19:50:36.650Z,17.57
2018-11-28T19:53:06.635Z,20.50
2018-11-28T19:55:35.766Z,18.53
2018-11-28T19:58:04.859Z,20.33
2018-11-28T20:00:33.888Z,21.57
2018-11-28T20:03:02.975Z,20.03
2018-11-28T20:05:32.021Z,20.30
2018-11-28T20:08:01.132Z,18.10
2018-11-28T20:10:30.262Z,18.03
2018-11-28T20:12:59.338Z,16.87
2018-11-28T20:15:29.642Z,16.23
2018-11-28T20:17:58.953Z,16.30
2018-11-28T20:20:28.065Z,19.03
2018-11-28T20:22:57.112Z,17.60
2018-11-28T20:25:26.189Z,19.70
2018-11-28T20:27:59.440Z,22.53
2018-11-28T20:30:30.038Z,18.17
2018-11-28T20:32:59.272Z,18.97
2018-11-28T20:35:28.332Z,20.23
2018-11-28T20:37:57.576Z,17.33
2018-11-28T20:40:26.736Z,19.03
2018-11-28T20:42:56.340Z,20.00
2018-11-28T20:45:25.448Z,18.30
2018-11-28T20:47:54.594Z,21.53
2018-11-28T20:50:33.652Z,18.40
2018-11-28T20:53:06.348Z,19.87
2018-11-28T20:55:35.485Z,21.13
2018-11-28T20:58:04.620Z,16.07
2018-11-28T21:00:33.732Z,17.63
2018-11-28T21:03:02.810Z,13.43
2018-11-28T21:05:31.968Z,17.33
2018-11-28T21:08:01.050Z,20.27
2018-11-28T21:10:37.191Z,22.27
2018-11-28T21:13:12.144Z,18.97
2018-11-28T21:15:42.077Z,19.17
2018-11-28T21:18:11.301Z,18.63
2018-11-28T21:20:41.637Z,20.87
2018-11-28T21:23:13.197Z,17.67
2018-11-28T21:25:42.316Z,19.77
2018-11-28T21:28:11.380Z,17.67
2018-11-28T21:30:40.484Z,15.57
2018-11-28T21:33:10.307Z,13.07
2018-11-28T21:35:41.047Z,20.13
2018-11-28T21:38:10.142Z,18.87
2018-11-28T21:40:39.224Z,19.13
2018-11-28T21:43:08.308Z,16.43
2018-11-28T21:45:37.451Z,17.67
2018-11-28T21:48:06.996Z,20.13
2018-11-28T21:50:36.341Z,18.13
2018-11-28T21:53:06.671Z,19.40
2018-11-28T21:55:35.788Z,18.53
2018-11-28T21:58:05.372Z,13.43
2018-11-28T22:00:35.823Z,12.20
2018-11-28T22:03:05.908Z,18.63
2018-11-28T22:05:35.096Z,17.60
2018-11-28T22:08:04.569Z,15.17
2018-11-28T22:10:33.771Z,15.73
2018-11-28T22:13:02.780Z,11.23
2018-11-28T22:15:31.863Z,16.63
2018-11-28T22:18:01.090Z,16.17
2018-11-28T22:20:30.164Z,16.47
2018-11-28T22:22:59.155Z,14.97
2018-11-28T22:25:28.361Z,14.97
2018-11-28T22:27:57.459Z,15.10
2018-11-28T22:30:28.489Z,13.83
2018-11-28T22:32:58.193Z,16.03
2018-11-28T22:35:27.335Z,15.80
2018-11-28T22:37:56.375Z,15.23
2018-11-28T22:40:30.728Z,14.80
2018-11-28T22:42:59.791Z,17.57
2018-11-28T22:45:33.511Z,14.73
2018-11-28T22:48:02.534Z,17.43
2018-11-28T22:50:31.597Z,15.43
2018-11-28T22:53:00.697Z,17.43
2018-11-28T22:55:29.889Z,13.27
2018-11-28T22:57:58.917Z,16.63
2018-11-28T23:00:33.457Z,15.07
2018-11-28T23:03:05.149Z,18.43
2018-11-28T23:05:37.313Z,14.17
2018-11-28T23:08:07.787Z,16.83
2018-11-28T23:10:37.495Z,16.67
2018-11-28T23:13:07.751Z,13.97
2018-11-28T23:15:36.747Z,13.00
2018-11-28T23:18:06.657Z,13.53
2018-11-28T23:20:35.772Z,16.77
2018-11-28T23:23:05.203Z,14.03
2018-11-28T23:25:34.281Z,15.50
2018-11-28T23:28:03.375Z,14.53
2018-11-28T23:30:32.397Z,14.63
2018-11-28T23:33:01.654Z,15.10
2018-11-28T23:35:30.957Z,22.13
2018-11-28T23:37:59.991Z,19.40
2018-11-28T23:40:29.118Z,14.33
2018-11-28T23:42:58.169Z,17.97
2018-11-28T23:45:27.457Z,16.47
2018-11-28T23:47:56.539Z,20.60
2018-11-28T23:50:26.368Z,18.70
2018-11-28T23:52:56.006Z,20.40
2018-11-28T23:55:27.626Z,17.47
2018-11-28T23:57:56.804Z,17.23
